createdAt,value
2018-12-11T00:00:07.435Z,5.43
2018-12-11T00:01:07.427Z,5.43
2018-12-11T00:02:07.418Z,5.41
2018-12-11T00:03:07.405Z,5.38
2018-12-11T00:04:07.396Z,5.36
2018-12-11T00:05:07.386Z,5.39
2018-12-11T00:06:07.380Z,5.38
2018-12-11T00:07:07.371Z,5.38
2018-12-11T00:08:07.357Z,5.46
2018-12-11T00:09:07.357Z,5.48
2018-12-11T00:10:07.341Z,5.46
2018-12-11T00:11:07.332Z,5.43
2018-12-11T00:12:07.328Z,5.44
2018-12-11T00:13:07.312Z,5.47
2018-12-11T00:14:07.305Z,5.48
2018-12-11T00:15:07.297Z,5.47
2018-12-11T00:16:07.287Z,5.53
2018-12-11T00:17:07.283Z,5.43
2018-12-11T00:18:07.275Z,5.43
2018-12-11T00:19:07.257Z,5.50
2018-12-11T00:20:07.250Z,5.43
2018-12-11T00:21:07.238Z,5.43
2018-12-11T00:22:07.234Z,5.39
2018-12-11T00:23:07.221Z,5.41
2018-12-11T00:24:07.214Z,5.33
2018-12-11T00:25:07.207Z,5.46
2018-12-11T00:26:07.195Z,5.35
2018-12-11T00:27:07.186Z,5.43
2018-12-11T00:28:07.171Z,5.50
2018-12-11T00:29:07.165Z,5.38
2018-12-11T00:30:07.153Z,5.46
2018-12-11T00:31:07.159Z,5.36
2018-12-11T00:32:07.141Z,5.43
2018-12-11T00:33:07.127Z,5.39
2018-12-11T00:34:07.117Z,5.44
2018-12-11T00:35:07.111Z,5.46
2018-12-11T00:36:07.099Z,5.41
2018-12-11T00:37:07.099Z,5.41
2018-12-11T00:38:07.079Z,5.41
2018-12-11T00:39:07.074Z,5.51
2018-12-11T00:40:07.062Z,5.51
2018-12-11T00:41:07.057Z,5.47
2018-12-11T00:42:07.052Z,5.51
2018-12-11T00:43:07.033Z,5.57
2018-12-11T00:44:07.032Z,5.57
2018-12-11T00:45:07.021Z,5.46
2018-12-11T00:46:08.367Z,5.57
2018-12-11T00:47:07.891Z,5.57
2018-12-11T00:48:06.992Z,5.46
2018-12-11T00:49:06.977Z,5.54
2018-12-11T00:50:06.982Z,5.43
2018-12-11T00:51:06.956Z,5.44
2018-12-11T00:52:06.951Z,5.46
2018-12-11T00:53:06.941Z,5.46
2018-12-11T00:54:06.931Z,5.39
2018-12-11T00:55:06.929Z,5.46
2018-12-11T00:56:06.912Z,5.46
2018-12-11T00:57:06.908Z,5.47
2018-12-11T00:58:06.893Z,5.46
2018-12-11T00:59:06.882Z,5.44
2018-12-11T01:00:06.878Z,5.47
2018-12-11T01:01:06.868Z,5.41
2018-12-11T01:02:06.863Z,5.41
2018-12-11T01:03:06.848Z,5.44
2018-12-11T01:04:06.839Z,5.38
2018-12-11T01:05:06.830Z,5.43
2018-12-11T01:06:06.818Z,5.43
2018-12-11T01:07:06.809Z,5.35
2018-12-11T01:08:06.803Z,5.36
2018-12-11T01:09:06.793Z,5.48
2018-12-11T01:10:06.782Z,5.46
2018-12-11T01:11:06.773Z,5.46
2018-12-11T01:12:06.764Z,5.33
2018-12-11T01:13:06.758Z,5.33
2018-12-11T01:14:06.746Z,5.36
2018-12-11T01:15:06.735Z,5.41
2018-12-11T01:16:06.728Z,5.21
2018-12-11T01:17:06.717Z,5.20
2018-12-11T01:18:06.714Z,5.25
2018-12-11T01:19:06.695Z,5.36
2018-12-11T01:20:06.690Z,5.39
2018-12-11T01:21:06.680Z,5.41
2018-12-11T01:22:06.666Z,5.39
2018-12-11T01:23:06.662Z,5.25
2018-12-11T01:24:06.661Z,5.23
2018-12-11T01:25:06.645Z,5.30
2018-12-11T01:26:06.634Z,5.32
2018-12-11T01:27:06.623Z,5.38
2018-12-11T01:28:06.619Z,5.38
2018-12-11T01:29:06.606Z,5.41
2018-12-11T01:30:06.594Z,5.39
2018-12-11T01:31:06.593Z,5.41
2018-12-11T01:32:06.579Z,5.36
2018-12-11T01:33:06.570Z,5.32
2018-12-11T01:34:06.563Z,5.30
2018-12-11T01:35:06.550Z,5.39
2018-12-11T01:36:06.541Z,5.39
2018-12-11T01:37:06.527Z,5.36
2018-12-11T01:38:06.519Z,5.41
2018-12-11T01:39:06.509Z,5.36
2018-12-11T01:40:06.499Z,5.39
2018-12-11T01:41:06.498Z,5.39
2018-12-11T01:42:06.480Z,5.36
2018-12-11T01:43:06.474Z,5.36
2018-12-11T01:44:06.463Z,5.35
2018-12-11T01:45:06.451Z,5.41
2018-12-11T01:46:06.444Z,5.29
2018-12-11T01:47:06.435Z,5.36
2018-12-11T01:48:06.425Z,5.36
2018-12-11T01:49:06.420Z,5.33
2018-12-11T01:50:06.417Z,5.39
2018-12-11T01:51:06.397Z,5.36
2018-12-11T01:52:06.388Z,5.38
2018-12-11T01:53:06.380Z,5.33
2018-12-11T01:54:06.374Z,5.36
2018-12-11T01:55:06.360Z,5.33
2018-12-11T01:56:06.351Z,5.33
2018-12-11T01:57:06.340Z,5.41
2018-12-11T01:58:06.333Z,5.38
2018-12-11T01:59:06.324Z,5.47
2018-12-11T02:00:06.318Z,5.41
2018-12-11T02:01:06.304Z,5.46
2018-12-11T02:02:06.294Z,5.38
2018-12-11T02:03:06.285Z,5.38
2018-12-11T02:04:06.281Z,5.54
2018-12-11T02:05:06.264Z,5.46
2018-12-11T02:06:06.257Z,5.48
2018-12-11T02:07:06.251Z,5.43
2018-12-11T02:08:06.235Z,5.43
2018-12-11T02:09:06.230Z,5.44
2018-12-11T02:10:06.218Z,5.46
2018-12-11T02:11:06.210Z,5.46
2018-12-11T02:12:06.203Z,5.44
2018-12-11T02:13:06.195Z,5.43
2018-12-11T02:14:06.181Z,5.51
2018-12-11T02:15:06.209Z,5.46
2018-12-11T02:16:06.216Z,5.51
2018-12-11T02:17:06.157Z,5.43
2018-12-11T02:18:06.145Z,5.46
2018-12-11T02:19:06.135Z,5.51
2018-12-11T02:20:06.126Z,5.56
2018-12-11T02:21:06.116Z,5.57
2018-12-11T02:22:06.109Z,5.54
2018-12-11T02:23:06.095Z,5.59
2018-12-11T02:24:06.090Z,5.48
2018-12-11T02:25:06.078Z,5.50
2018-12-11T02:26:06.070Z,5.54
2018-12-11T02:27:06.067Z,5.46
2018-12-11T02:28:06.052Z,5.53
2018-12-11T02:29:06.043Z,5.54
2018-12-11T02:30:06.036Z,5.54
2018-12-11T02:31:06.024Z,5.57
2018-12-11T02:32:06.018Z,5.57
2018-12-11T02:33:06.002Z,5.56
2018-12-11T02:34:05.997Z,5.53
2018-12-11T02:35:05.987Z,5.57
2018-12-11T02:36:05.979Z,5.53
2018-12-11T02:37:05.975Z,5.56
2018-12-11T02:38:05.964Z,5.56
2018-12-11T02:39:05.953Z,5.61
2018-12-11T02:40:05.941Z,5.56
2018-12-11T02:41:05.933Z,5.57
2018-12-11T02:42:05.923Z,5.50
2018-12-11T02:43:05.915Z,5.62
2018-12-11T02:44:05.906Z,5.53
2018-12-11T02:45:05.897Z,5.64
2018-12-11T02:46:05.885Z,5.54
2018-12-11T02:47:05.880Z,5.56
2018-12-11T02:48:05.872Z,5.51
2018-12-11T02:49:05.861Z,5.53
2018-12-11T02:50:05.849Z,5.57
2018-12-11T02:51:05.840Z,5.61
2018-12-11T02:52:05.831Z,5.57
2018-12-11T02:53:05.820Z,5.54
2018-12-11T02:54:05.813Z,5.47
2018-12-11T02:55:05.804Z,5.64
2018-12-11T02:56:05.794Z,5.47
2018-12-11T02:57:05.813Z,5.48
2018-12-11T02:58:05.780Z,5.59
2018-12-11T02:59:05.766Z,5.62
2018-12-11T03:00:05.765Z,5.57
2018-12-11T03:01:05.746Z,5.65
2018-12-11T03:02:05.737Z,5.62
2018-12-11T03:03:05.728Z,5.66
2018-12-11T03:04:05.718Z,5.62
2018-12-11T03:05:05.715Z,5.64
2018-12-11T03:06:05.696Z,5.62
2018-12-11T03:07:05.693Z,5.64
2018-12-11T03:08:05.680Z,5.73
2018-12-11T03:09:05.673Z,5.66
2018-12-11T03:10:05.670Z,5.75
2018-12-11T03:11:05.677Z,5.73
2018-12-11T03:12:05.649Z,5.72
2018-12-11T03:13:05.637Z,5.73
2018-12-11T03:14:05.626Z,5.69
2018-12-11T03:15:05.617Z,5.76
2018-12-11T03:16:05.607Z,5.66
2018-12-11T03:17:05.607Z,5.75
2018-12-11T03:18:05.593Z,5.73
2018-12-11T03:19:05.584Z,5.75
2018-12-11T03:20:05.575Z,5.82
2018-12-11T03:21:05.561Z,5.73
2018-12-11T03:22:05.554Z,5.80
2018-12-11T03:23:05.544Z,5.75
2018-12-11T03:24:05.534Z,5.80
2018-12-11T03:25:05.529Z,5.83
2018-12-11T03:26:05.514Z,5.76
2018-12-11T03:27:05.509Z,5.80
2018-12-11T03:28:05.498Z,5.82
2018-12-11T03:29:05.491Z,5.82
2018-12-11T03:30:05.486Z,5.82
2018-12-11T03:31:05.470Z,5.86
2018-12-11T03:32:05.470Z,5.90
2018-12-11T03:33:05.459Z,5.94
2018-12-11T03:34:05.439Z,5.86
2018-12-11T03:35:05.434Z,5.91
2018-12-11T03:36:05.422Z,5.90
2018-12-11T03:37:05.416Z,5.80
2018-12-11T03:38:05.411Z,5.86
2018-12-11T03:39:05.394Z,5.83
2018-12-11T03:40:05.387Z,5.89
2018-12-11T03:41:05.381Z,5.86
2018-12-11T03:42:05.367Z,5.86
2018-12-11T03:43:05.367Z,5.84
2018-12-11T03:44:05.352Z,5.90
2018-12-11T03:45:05.341Z,5.83
2018-12-11T03:46:05.329Z,5.90
2018-12-11T03:47:05.323Z,5.91
2018-12-11T03:48:05.315Z,5.87
2018-12-11T03:49:05.303Z,5.84
2018-12-11T03:50:05.296Z,5.89
2018-12-11T03:51:05.283Z,5.86
2018-12-11T03:52:05.304Z,5.84
2018-12-11T03:53:05.272Z,5.89
2018-12-11T03:54:05.255Z,5.87
2018-12-11T03:55:05.251Z,5.84
2018-12-11T03:56:05.240Z,5.80
2018-12-11T03:57:05.228Z,5.80
2018-12-11T03:58:05.219Z,5.79
2018-12-11T03:59:05.218Z,5.76
2018-12-11T04:00:05.202Z,5.75
2018-12-11T04:01:05.194Z,5.73
2018-12-11T04:02:05.182Z,5.72
2018-12-11T04:03:05.178Z,5.75
2018-12-11T04:04:05.172Z,5.75
2018-12-11T04:05:05.156Z,5.75
2018-12-11T04:06:05.145Z,5.80
2018-12-11T04:07:05.138Z,5.79
2018-12-11T04:08:05.127Z,5.69
2018-12-11T04:09:05.116Z,5.69
2018-12-11T04:10:05.111Z,5.72
2018-12-11T04:11:05.106Z,5.66
2018-12-11T04:12:05.110Z,5.64
2018-12-11T04:13:05.082Z,5.69
2018-12-11T04:14:05.074Z,5.69
2018-12-11T04:15:05.065Z,5.69
2018-12-11T04:16:05.057Z,5.75
2018-12-11T04:17:05.040Z,5.65
2018-12-11T04:18:05.034Z,5.71
2018-12-11T04:19:05.025Z,5.73
2018-12-11T04:20:05.018Z,5.73
2018-12-11T04:21:05.009Z,5.73
2018-12-11T04:22:04.996Z,5.71
2018-12-11T04:23:04.990Z,5.76
2018-12-11T04:24:04.978Z,5.71
2018-12-11T04:25:04.971Z,5.72
2018-12-11T04:26:04.965Z,5.68
2018-12-11T04:27:04.957Z,5.68
2018-12-11T04:28:04.942Z,5.71
2018-12-11T04:29:04.933Z,5.75
2018-12-11T04:30:04.923Z,5.73
2018-12-11T04:31:04.914Z,5.79
2018-12-11T04:32:04.905Z,5.79
2018-12-11T04:33:04.895Z,5.69
2018-12-11T04:34:04.888Z,5.86
2018-12-11T04:35:04.876Z,5.71
2018-12-11T04:36:04.873Z,5.75
2018-12-11T04:37:04.857Z,5.83
2018-12-11T04:38:04.845Z,5.83
2018-12-11T04:39:04.840Z,5.79
2018-12-11T04:40:04.830Z,5.76
2018-12-11T04:41:04.822Z,5.76
2018-12-11T04:42:04.809Z,5.75
2018-12-11T04:43:04.803Z,5.73
2018-12-11T04:44:04.796Z,5.73
2018-12-11T04:45:04.784Z,5.69
2018-12-11T04:46:04.782Z,5.76
2018-12-11T04:47:04.766Z,5.83
2018-12-11T04:48:04.754Z,5.79
2018-12-11T04:49:04.751Z,5.76
2018-12-11T04:50:04.740Z,5.68
2018-12-11T04:51:04.727Z,5.75
2018-12-11T04:52:04.720Z,5.69
2018-12-11T04:53:04.709Z,5.75
2018-12-11T04:54:04.704Z,5.82
2018-12-11T04:55:04.690Z,5.79
2018-12-11T04:56:04.690Z,5.79
2018-12-11T04:57:04.671Z,5.73
2018-12-11T04:58:04.663Z,5.76
2018-12-11T04:59:04.661Z,5.83
2018-12-11T05:00:04.644Z,5.79
2018-12-11T05:01:04.634Z,5.76
2018-12-11T05:02:04.624Z,5.75
2018-12-11T05:03:04.611Z,5.76
2018-12-11T05:04:04.607Z,5.73
2018-12-11T05:05:04.597Z,5.73
2018-12-11T05:06:04.589Z,5.71
2018-12-11T05:07:04.583Z,5.69
2018-12-11T05:08:04.567Z,5.75
2018-12-11T05:09:04.564Z,5.64
2018-12-11T05:10:04.549Z,5.61
2018-12-11T05:11:04.547Z,5.61
2018-12-11T05:12:04.533Z,5.66
2018-12-11T05:13:04.523Z,5.66
2018-12-11T05:14:04.513Z,5.59
2018-12-11T05:15:04.504Z,5.68
2018-12-11T05:16:04.494Z,5.56
2018-12-11T05:17:04.494Z,5.64
2018-12-11T05:18:04.472Z,5.57
2018-12-11T05:19:04.466Z,5.59
2018-12-11T05:20:04.459Z,5.62
2018-12-11T05:21:04.448Z,5.56
2018-12-11T05:22:04.441Z,5.64
2018-12-11T05:23:04.430Z,5.61
2018-12-11T05:24:04.418Z,5.61
2018-12-11T05:25:04.416Z,5.57
2018-12-11T05:26:04.397Z,5.50
2018-12-11T05:27:04.392Z,5.53
2018-12-11T05:28:04.379Z,5.44
2018-12-11T05:29:04.372Z,5.57
2018-12-11T05:30:04.365Z,5.56
2018-12-11T05:31:04.356Z,5.41
2018-12-11T05:32:04.348Z,5.47
2018-12-11T05:33:04.333Z,5.46
2018-12-11T05:34:04.331Z,5.44
2018-12-11T05:35:04.317Z,5.38
2018-12-11T05:36:04.304Z,5.33
2018-12-11T05:37:04.303Z,5.36
2018-12-11T05:38:04.294Z,5.33
2018-12-11T05:39:04.275Z,5.39
2018-12-11T05:40:04.270Z,5.36
2018-12-11T05:41:04.259Z,5.41
2018-12-11T05:42:04.249Z,5.28
2018-12-11T05:43:04.275Z,5.33
2018-12-11T05:44:04.235Z,5.25
2018-12-11T05:45:04.231Z,5.21
2018-12-11T05:46:05.417Z,5.23
2018-12-11T05:47:04.208Z,5.26
2018-12-11T05:48:04.193Z,5.26
2018-12-11T05:49:04.189Z,5.25
2018-12-11T05:50:04.174Z,5.17
2018-12-11T05:51:04.163Z,5.18
2018-12-11T05:52:04.154Z,5.28
2018-12-11T05:53:04.155Z,5.26
2018-12-11T05:54:04.138Z,5.23
2018-12-11T05:55:04.126Z,5.18
2018-12-11T05:56:04.117Z,5.18
2018-12-11T05:57:04.109Z,5.25
2018-12-11T05:58:04.102Z,5.15
2018-12-11T05:59:04.087Z,5.12
2018-12-11T06:00:04.078Z,5.18
2018-12-11T06:01:04.069Z,5.21
2018-12-11T06:02:04.064Z,5.20
2018-12-11T06:03:04.055Z,5.18
2018-12-11T06:04:04.039Z,5.18
2018-12-11T06:05:04.034Z,5.08
2018-12-11T06:06:04.028Z,4.99
2018-12-11T06:07:04.010Z,4.93
2018-12-11T06:08:04.003Z,4.96
2018-12-11T06:09:03.994Z,4.90
2018-12-11T06:10:03.983Z,4.87
2018-12-11T06:11:03.972Z,4.74
2018-12-11T06:12:03.962Z,4.80
2018-12-11T06:13:04.019Z,4.87
2018-12-11T06:14:03.946Z,4.77
2018-12-11T06:15:03.934Z,4.74
2018-12-11T06:16:03.922Z,4.68
2018-12-11T06:17:03.915Z,4.78
2018-12-11T06:18:03.901Z,4.74
2018-12-11T06:19:03.897Z,4.75
2018-12-11T06:20:03.885Z,4.68
2018-12-11T06:21:03.876Z,4.89
2018-12-11T06:22:03.866Z,4.73
2018-12-11T06:23:03.857Z,4.74
2018-12-11T06:24:03.846Z,4.77
2018-12-11T06:25:04.049Z,4.67
2018-12-11T06:26:03.828Z,4.68
2018-12-11T06:27:03.822Z,4.63
2018-12-11T06:28:03.806Z,4.75
2018-12-11T06:29:03.798Z,4.63
2018-12-11T06:30:03.923Z,4.73
2018-12-11T06:31:03.775Z,4.62
2018-12-11T06:32:03.771Z,4.70
2018-12-11T06:33:03.763Z,4.70
2018-12-11T06:34:03.752Z,4.66
2018-12-11T06:35:04.456Z,4.73
2018-12-11T06:36:03.730Z,4.75
2018-12-11T06:37:03.723Z,4.63
2018-12-11T06:38:03.712Z,4.62
2018-12-11T06:39:03.703Z,4.60
2018-12-11T06:40:03.689Z,4.63
2018-12-11T06:41:03.693Z,4.66
2018-12-11T06:42:03.677Z,4.70
2018-12-11T06:43:03.665Z,4.68
2018-12-11T06:44:03.650Z,4.84
2018-12-11T06:45:03.644Z,4.66
2018-12-11T06:46:03.632Z,4.66
2018-12-11T06:47:03.624Z,4.68
2018-12-11T06:48:03.610Z,4.70
2018-12-11T06:49:03.605Z,4.77
2018-12-11T06:50:03.593Z,4.78
2018-12-11T06:51:03.585Z,4.73
2018-12-11T06:52:03.574Z,4.75
2018-12-11T06:53:03.574Z,4.78
2018-12-11T06:54:03.557Z,4.75
2018-12-11T06:55:03.547Z,4.71
2018-12-11T06:56:03.540Z,4.78
2018-12-11T06:57:03.529Z,4.80
2018-12-11T06:58:03.519Z,4.87
2018-12-11T06:59:03.511Z,4.84
2018-12-11T07:00:03.494Z,4.84
2018-12-11T07:01:03.487Z,4.84
2018-12-11T07:02:03.480Z,4.84
2018-12-11T07:03:03.467Z,4.86
2018-12-11T07:04:03.456Z,4.84
2018-12-11T07:05:03.452Z,4.84
2018-12-11T07:06:03.437Z,4.84
2018-12-11T07:07:03.427Z,4.84
2018-12-11T07:08:03.418Z,4.84
2018-12-11T07:09:03.415Z,4.84
2018-12-11T07:10:03.398Z,4.84
2018-12-11T07:11:03.393Z,4.87
2018-12-11T07:12:03.387Z,4.80
2018-12-11T07:13:03.370Z,4.89
2018-12-11T07:14:03.360Z,4.82
2018-12-11T07:15:03.352Z,4.78
2018-12-11T07:16:03.339Z,4.86
2018-12-11T07:17:03.335Z,4.82
2018-12-11T07:18:03.321Z,4.87
2018-12-11T07:19:03.314Z,4.87
2018-12-11T07:20:03.304Z,4.84
2018-12-11T07:21:03.292Z,4.90
2018-12-11T07:22:03.282Z,4.93
2018-12-11T07:23:03.274Z,4.84
2018-12-11T07:24:03.262Z,4.78
2018-12-11T07:25:03.258Z,4.74
2018-12-11T07:26:03.244Z,4.80
2018-12-11T07:27:03.231Z,4.86
2018-12-11T07:28:03.221Z,4.74
2018-12-11T07:29:03.214Z,4.87
2018-12-11T07:30:03.205Z,4.87
2018-12-11T07:31:03.193Z,4.73
2018-12-11T07:32:03.184Z,4.82
2018-12-11T07:33:03.174Z,4.84
2018-12-11T07:34:03.163Z,4.84
2018-12-11T07:35:03.155Z,4.89
2018-12-11T07:36:03.147Z,4.82
2018-12-11T07:37:03.135Z,4.89
2018-12-11T07:38:03.123Z,4.90
2018-12-11T07:39:03.116Z,4.86
2018-12-11T07:40:03.107Z,4.84
2018-12-11T07:41:03.100Z,4.80
2018-12-11T07:42:03.088Z,4.86
2018-12-11T07:43:03.077Z,4.87
2018-12-11T07:44:03.071Z,4.94
2018-12-11T07:45:03.056Z,4.82
2018-12-11T07:46:03.047Z,4.82
2018-12-11T07:47:03.038Z,4.89
2018-12-11T07:48:03.025Z,4.94
2018-12-11T07:49:03.018Z,4.93
2018-12-11T07:50:03.010Z,4.90
2018-12-11T07:51:02.998Z,4.89
2018-12-11T07:52:02.988Z,4.90
2018-12-11T07:53:06.329Z,4.92
2018-12-11T07:54:02.968Z,4.93
2018-12-11T07:55:03.468Z,4.92
2018-12-11T07:56:02.951Z,4.99
2018-12-11T07:57:02.944Z,4.87
2018-12-11T07:58:02.929Z,4.93
2018-12-11T07:59:02.920Z,4.96
2018-12-11T08:00:02.911Z,4.87
2018-12-11T08:01:02.905Z,4.93
2018-12-11T08:02:02.891Z,4.89
2018-12-11T08:03:02.881Z,4.90
2018-12-11T08:04:02.876Z,4.99
2018-12-11T08:05:02.863Z,4.92
2018-12-11T08:06:02.848Z,4.92
2018-12-11T08:07:02.843Z,4.84
2018-12-11T08:08:02.836Z,4.87
2018-12-11T08:09:02.824Z,4.93
2018-12-11T08:10:02.816Z,4.96
2018-12-11T08:11:02.803Z,4.89
2018-12-11T08:12:08.135Z,4.90
2018-12-11T08:13:02.787Z,4.82
2018-12-11T08:14:02.773Z,4.84
2018-12-11T08:15:02.768Z,4.82
2018-12-11T08:16:02.756Z,4.84
2018-12-11T08:17:02.757Z,4.89
2018-12-11T08:18:02.738Z,4.80
2018-12-11T08:19:02.725Z,4.84
2018-12-11T08:20:02.719Z,4.92
2018-12-11T08:21:02.710Z,4.82
2018-12-11T08:22:02.697Z,4.73
2018-12-11T08:23:02.690Z,4.82
2018-12-11T08:24:02.680Z,4.84
2018-12-11T08:25:02.671Z,4.78
2018-12-11T08:26:02.662Z,4.80
2018-12-11T08:27:02.660Z,4.84
2018-12-11T08:28:02.643Z,4.73
2018-12-11T08:29:02.634Z,4.73
2018-12-11T08:30:02.622Z,4.75
2018-12-11T08:31:02.617Z,4.67
2018-12-11T08:32:02.606Z,4.66
2018-12-11T08:33:02.596Z,4.68
2018-12-11T08:34:02.583Z,4.60
2018-12-11T08:35:02.576Z,4.74
2018-12-11T08:36:02.564Z,4.67
2018-12-11T08:37:02.559Z,4.82
2018-12-11T08:38:02.544Z,4.75
2018-12-11T08:39:02.539Z,4.73
2018-12-11T08:40:02.525Z,4.68
2018-12-11T08:41:02.517Z,4.74
2018-12-11T08:42:02.507Z,4.70
2018-12-11T08:43:02.498Z,4.71
2018-12-11T08:44:02.488Z,4.82
2018-12-11T08:45:02.477Z,4.78
2018-12-11T08:46:02.468Z,4.68
2018-12-11T08:47:02.463Z,4.67
2018-12-11T08:48:02.447Z,4.80
2018-12-11T08:49:02.440Z,4.73
2018-12-11T08:50:02.430Z,4.78
2018-12-11T08:51:02.420Z,4.78
2018-12-11T08:52:02.415Z,4.73
2018-12-11T08:53:02.401Z,4.90
2018-12-11T08:54:02.393Z,4.82
2018-12-11T08:55:02.385Z,4.77
2018-12-11T08:56:02.371Z,4.87
2018-12-11T08:57:02.365Z,4.75
2018-12-11T08:58:02.354Z,4.78
2018-12-11T08:59:06.440Z,4.87
2018-12-11T09:00:02.333Z,4.86
2018-12-11T09:01:02.330Z,4.87
2018-12-11T09:02:02.315Z,4.80
2018-12-11T09:03:02.308Z,4.84
2018-12-11T09:04:02.298Z,4.77
2018-12-11T09:05:02.291Z,4.89
2018-12-11T09:06:02.277Z,4.92
2018-12-11T09:07:02.267Z,4.87
2018-12-11T09:08:02.261Z,4.89
2018-12-11T09:09:02.252Z,5.02
2018-12-11T09:10:02.240Z,4.99
2018-12-11T09:11:02.229Z,4.99
2018-12-11T09:12:02.221Z,4.94
2018-12-11T09:13:02.212Z,4.99
2018-12-11T09:14:02.204Z,4.94
2018-12-11T09:15:02.190Z,5.07
2018-12-11T09:16:02.185Z,4.99
2018-12-11T09:17:09.876Z,4.99
2018-12-11T09:18:02.170Z,5.10
2018-12-11T09:19:02.153Z,5.00
2018-12-11T09:20:02.145Z,5.00
2018-12-11T09:21:02.141Z,5.00
2018-12-11T09:22:02.122Z,5.11
2018-12-11T09:23:02.116Z,5.08
2018-12-11T09:24:02.104Z,5.02
2018-12-11T09:25:02.099Z,5.15
2018-12-11T09:26:02.086Z,5.10
2018-12-11T09:27:02.075Z,5.10
2018-12-11T09:28:02.068Z,5.10
2018-12-11T09:29:02.063Z,5.04
2018-12-11T09:30:02.057Z,5.10
2018-12-11T09:31:02.046Z,5.14
2018-12-11T09:32:02.030Z,5.00
2018-12-11T09:33:02.023Z,4.97
2018-12-11T09:34:02.017Z,4.99
2018-12-11T09:35:01.998Z,4.99
2018-12-11T09:36:01.993Z,5.02
2018-12-11T09:37:01.984Z,5.00
2018-12-11T09:38:01.973Z,4.99
2018-12-11T09:39:01.971Z,4.97
2018-12-11T09:40:01.956Z,5.00
2018-12-11T09:41:01.949Z,4.99
2018-12-11T09:42:07.106Z,5.00
2018-12-11T09:43:01.924Z,4.94
2018-12-11T09:44:01.924Z,4.86
2018-12-11T09:45:01.910Z,4.87
2018-12-11T09:46:01.896Z,4.86
2018-12-11T09:47:01.889Z,4.84
2018-12-11T09:48:01.881Z,4.89
2018-12-11T09:49:01.867Z,4.84
2018-12-11T09:50:01.860Z,4.78
2018-12-11T09:51:01.849Z,4.77
2018-12-11T09:52:01.839Z,4.78
2018-12-11T09:53:01.844Z,4.74
2018-12-11T09:54:01.818Z,4.86
2018-12-11T09:55:01.811Z,4.84
2018-12-11T09:56:01.818Z,4.74
2018-12-11T09:57:01.796Z,4.78
2018-12-11T09:58:01.783Z,4.71
2018-12-11T09:59:01.771Z,4.82
2018-12-11T10:00:01.765Z,4.80
2018-12-11T10:01:01.810Z,4.78
2018-12-11T10:02:01.741Z,4.74
2018-12-11T10:03:01.734Z,4.77
2018-12-11T10:04:01.718Z,4.89
2018-12-11T10:05:01.717Z,4.74
2018-12-11T10:06:01.712Z,4.86
2018-12-11T10:07:01.732Z,4.86
2018-12-11T10:08:01.688Z,4.74
2018-12-11T10:09:01.673Z,4.77
2018-12-11T10:10:01.664Z,4.80
2018-12-11T10:11:01.653Z,4.78
2018-12-11T10:12:01.649Z,4.78
2018-12-11T10:13:01.642Z,4.74
2018-12-11T10:14:01.626Z,4.77
2018-12-11T10:15:01.615Z,4.75
2018-12-11T10:16:01.608Z,4.73
2018-12-11T10:17:01.597Z,4.74
2018-12-11T10:18:01.587Z,4.74
2018-12-11T10:19:01.578Z,4.82
2018-12-11T10:20:01.574Z,4.74
2018-12-11T10:21:01.556Z,4.78
2018-12-11T10:22:01.551Z,4.67
2018-12-11T10:23:01.539Z,4.74
2018-12-11T10:24:01.531Z,4.80
2018-12-11T10:25:01.521Z,4.71
2018-12-11T10:26:01.511Z,4.80
2018-12-11T10:27:01.502Z,4.77
2018-12-11T10:28:01.557Z,4.75
2018-12-11T10:29:01.486Z,4.77
2018-12-11T10:30:01.471Z,4.75
2018-12-11T10:31:01.461Z,4.63
2018-12-11T10:32:01.456Z,4.71
2018-12-11T10:33:01.441Z,4.75
2018-12-11T10:34:01.431Z,4.68
2018-12-11T10:35:01.424Z,4.80
2018-12-11T10:36:01.416Z,4.71
2018-12-11T10:37:01.406Z,4.77
2018-12-11T10:38:01.396Z,4.75
2018-12-11T10:39:01.388Z,4.86
2018-12-11T10:40:01.373Z,4.78
2018-12-11T10:41:01.363Z,4.78
2018-12-11T10:42:01.366Z,4.70
2018-12-11T10:43:01.345Z,4.82
2018-12-11T10:44:01.336Z,4.77
2018-12-11T10:45:01.330Z,4.75
2018-12-11T10:46:01.315Z,4.73
2018-12-11T10:47:01.305Z,4.73
2018-12-11T10:48:01.297Z,4.82
2018-12-11T10:49:01.284Z,4.80
2018-12-11T10:50:01.279Z,4.73
2018-12-11T10:51:01.265Z,4.80
2018-12-11T10:52:01.261Z,4.74
2018-12-11T10:53:01.918Z,4.73
2018-12-11T10:54:02.002Z,4.84
2018-12-11T10:55:01.230Z,4.73
2018-12-11T10:56:01.219Z,4.71
2018-12-11T10:57:01.208Z,4.75
2018-12-11T10:58:01.203Z,4.77
2018-12-11T10:59:01.188Z,4.78
2018-12-11T11:00:02.002Z,4.74
2018-12-11T11:01:01.173Z,4.86
2018-12-11T11:02:01.160Z,4.75
2018-12-11T11:03:01.152Z,4.73
2018-12-11T11:04:01.142Z,4.70
2018-12-11T11:05:01.136Z,4.71
2018-12-11T11:06:01.125Z,4.75
2018-12-11T11:07:01.117Z,4.73
2018-12-11T11:08:01.110Z,4.78
2018-12-11T11:09:01.097Z,4.78
2018-12-11T11:10:01.087Z,4.82
2018-12-11T11:11:01.082Z,4.77
2018-12-11T11:12:01.065Z,4.75
2018-12-11T11:13:01.612Z,4.77
2018-12-11T11:14:01.042Z,4.77
2018-12-11T11:15:01.034Z,4.70
2018-12-11T11:16:01.041Z,4.73
2018-12-11T11:17:01.018Z,4.63
2018-12-11T11:18:01.011Z,4.68
2018-12-11T11:19:01.001Z,4.77
2018-12-11T11:20:00.988Z,4.73
2018-12-11T11:21:00.978Z,4.62
2018-12-11T11:22:00.969Z,4.63
2018-12-11T11:23:00.960Z,4.62
2018-12-11T11:24:00.955Z,4.63
2018-12-11T11:25:00.941Z,4.68
2018-12-11T11:26:01.035Z,4.62
2018-12-11T11:27:00.922Z,4.68
2018-12-11T11:28:00.919Z,4.58
2018-12-11T11:29:00.901Z,4.60
2018-12-11T11:30:00.893Z,4.58
2018-12-11T11:31:00.885Z,4.66
2018-12-11T11:32:00.875Z,4.68
2018-12-11T11:33:00.863Z,4.62
2018-12-11T11:34:00.855Z,4.60
2018-12-11T11:35:00.848Z,4.60
2018-12-11T11:36:00.839Z,4.67
2018-12-11T11:37:00.830Z,4.75
2018-12-11T11:38:00.817Z,4.63
2018-12-11T11:39:00.811Z,4.66
2018-12-11T11:40:00.801Z,4.66
2018-12-11T11:41:00.787Z,4.59
2018-12-11T11:42:00.777Z,4.70
2018-12-11T11:43:00.767Z,4.67
2018-12-11T11:44:00.760Z,4.60
2018-12-11T11:45:00.750Z,4.66
2018-12-11T11:46:00.738Z,4.58
2018-12-11T11:47:00.730Z,4.52
2018-12-11T11:48:00.722Z,4.55
2018-12-11T11:49:00.710Z,4.63
2018-12-11T11:50:00.701Z,4.63
2018-12-11T11:51:00.694Z,4.63
2018-12-11T11:52:00.683Z,4.66
2018-12-11T11:53:00.675Z,4.62
2018-12-11T11:54:00.663Z,4.63
2018-12-11T11:55:00.657Z,4.68
2018-12-11T11:56:00.652Z,4.62
2018-12-11T11:57:00.632Z,4.62
2018-12-11T11:58:00.623Z,4.58
2018-12-11T11:59:00.614Z,4.59
2018-12-11T12:00:00.606Z,4.63
2018-12-11T12:01:00.597Z,4.63
2018-12-11T12:02:00.584Z,4.67
2018-12-11T12:03:00.575Z,4.62
2018-12-11T12:04:00.567Z,4.66
2018-12-11T12:05:00.557Z,4.62
2018-12-11T12:06:00.555Z,4.66
2018-12-11T12:07:00.537Z,4.58
2018-12-11T12:08:00.529Z,4.68
2018-12-11T12:09:00.519Z,4.63
2018-12-11T12:10:00.505Z,4.70
2018-12-11T12:11:00.499Z,4.66
2018-12-11T12:12:00.487Z,4.60
2018-12-11T12:13:00.511Z,4.71
2018-12-11T12:14:00.475Z,4.75
2018-12-11T12:15:00.461Z,4.71
2018-12-11T12:16:00.454Z,4.75
2018-12-11T12:17:00.441Z,4.73
2018-12-11T12:18:00.471Z,4.73
2018-12-11T12:19:00.427Z,4.67
2018-12-11T12:20:00.417Z,4.82
2018-12-11T12:21:00.404Z,4.84
2018-12-11T12:22:00.398Z,4.80
2018-12-11T12:23:00.382Z,4.90
2018-12-11T12:24:00.374Z,4.87
2018-12-11T12:25:00.367Z,4.82
2018-12-11T12:26:00.352Z,4.73
2018-12-11T12:27:00.343Z,4.90
2018-12-11T12:28:00.339Z,4.90
2018-12-11T12:29:00.328Z,4.87
2018-12-11T12:30:00.319Z,4.86
2018-12-11T12:31:01.020Z,4.80
2018-12-11T12:32:00.299Z,4.84
2018-12-11T12:33:00.290Z,4.86
2018-12-11T12:34:00.294Z,4.80
2018-12-11T12:35:00.273Z,4.87
2018-12-11T12:36:00.263Z,4.86
2018-12-11T12:37:00.253Z,4.94
2018-12-11T12:38:00.243Z,4.93
2018-12-11T12:39:00.234Z,4.87
2018-12-11T12:40:00.226Z,4.84
2018-12-11T12:41:00.213Z,4.84
2018-12-11T12:42:00.213Z,4.80
2018-12-11T12:43:00.197Z,4.87
2018-12-11T12:44:00.191Z,4.92
2018-12-11T12:45:00.183Z,4.82
2018-12-11T12:46:00.171Z,4.82
2018-12-11T12:47:00.162Z,4.90
2018-12-11T12:48:00.150Z,4.80
2018-12-11T12:49:00.143Z,4.84
2018-12-11T12:50:00.134Z,4.82
2018-12-11T12:51:00.125Z,4.84
2018-12-11T12:52:00.118Z,4.82
2018-12-11T12:53:00.107Z,4.84
2018-12-11T12:54:00.097Z,4.92
2018-12-11T12:55:00.096Z,4.93
2018-12-11T12:56:00.079Z,4.89
2018-12-11T12:57:00.070Z,4.90
2018-12-11T12:58:00.057Z,4.93
2018-12-11T12:59:00.049Z,4.84
2018-12-11T13:00:00.042Z,4.90
2018-12-11T13:01:00.029Z,4.89
2018-12-11T13:02:00.020Z,4.87
2018-12-11T13:03:00.160Z,4.89
2018-12-11T13:04:00.005Z,4.99
2018-12-11T13:04:59.996Z,4.97
2018-12-11T13:05:59.982Z,4.90
2018-12-11T13:06:59.982Z,4.94
2018-12-11T13:07:59.966Z,4.97
2018-12-11T13:08:59.960Z,5.04
2018-12-11T13:09:59.948Z,5.05
2018-12-11T13:10:59.939Z,5.02
2018-12-11T13:11:59.930Z,5.05
2018-12-11T13:12:59.920Z,5.14
2018-12-11T13:13:59.912Z,5.10
2018-12-11T13:14:59.913Z,5.14
2018-12-11T13:15:59.893Z,5.07
2018-12-11T13:16:59.885Z,5.10
2018-12-11T13:17:59.878Z,5.08